Saint Peter, Minnesota
Current Conditions -  °F | °C
As of 2:55 PM on Tuesday 25 Nov 2014 (Local Time) from KMKT Reporting Station
Scattered Clouds Scattered Clouds  
Wind Chill: -8°   Ceiling: Unl
Heat Index: -3°   Visibility: 10mi
Dew Point: -13°   Wind: 9mph
Humidity: 47%   Direction: 180°S
Pressure: 30.01"   Gusts: NA
Location:  44.32°N, 93.96°W
Report Text: KMKT 252055Z AUTO 18008KT 10SM SCT050 M03/M13 A3001 RMK AO1 57014
Loading
Personal Weather Stations






























Interactive Weather Map New forecast layout! Learn more

10-Day Weather Forecast

Advertisements
Track Severe Weather on mobile